Time;durP1;ratioP1;P1;durP2;ratioP2;P2;SDS_P1;SDS_P2;PMS_P1;PMS_P2;Temp;Humidity;BMP_temperature;BMP_pressure;BME280_temperature;BME280_humidity;BME280_pressure;Samples;Min_cycle;Max_cycle;Signal;HPM_P1;HPM_P2
2021/06/21 00:01:52;;;;;;;22.23;18.02;;;20.60;99.90;;;;;;5012049;28;20255;-80
2021/06/21 00:04:17;;;;;;;30.35;19.65;;;20.60;99.90;;;;;;5011733;28;20242;-81
2021/06/21 00:06:44;;;;;;;32.38;20.13;;;20.60;99.90;;;;;;5043973;28;20172;-81
2021/06/21 00:09:10;;;;;;;31.35;20.17;;;20.70;99.90;;;;;;5011711;28;20173;-80
2021/06/21 00:11:36;;;;;;;34.17;20.25;;;20.70;99.90;;;;;;5010594;28;20196;-81
2021/06/21 00:14:02;;;;;;;30.05;19.38;;;20.70;99.90;;;;;;5010569;28;20184;-81
2021/06/21 00:16:28;;;;;;;28.90;19.60;;;20.60;99.90;;;;;;5015447;28;20210;-81
2021/06/21 00:18:53;;;;;;;23.90;19.70;;;20.40;99.90;;;;;;5016466;28;20628;-82
2021/06/21 00:21:20;;;;;;;27.95;20.50;;;20.30;99.90;;;;;;5014135;28;20181;-81
2021/06/21 00:23:45;;;;;;;29.92;20.48;;;20.30;99.90;;;;;;5013127;28;20531;-81
2021/06/21 00:26:11;;;;;;;34.13;22.52;;;20.30;99.90;;;;;;5014800;28;20172;-80
2021/06/21 00:28:37;;;;;;;28.23;20.88;;;20.30;99.90;;;;;;5014615;28;20181;-81
2021/06/21 00:31:03;;;;;;;32.50;21.85;;;20.40;99.90;;;;;;5046921;28;20180;-81
2021/06/21 00:33:28;;;;;;;33.92;22.55;;;20.40;99.90;;;;;;5016095;28;20169;-81
2021/06/21 00:35:54;;;;;;;35.80;23.25;;;20.40;99.90;;;;;;5016049;28;20244;-81
2021/06/21 00:38:20;;;;;;;29.55;22.27;;;20.40;99.90;;;;;;5035661;28;20210;-81
2021/06/21 00:40:46;;;;;;;31.38;23.17;;;20.50;99.90;;;;;;5035527;28;20184;-81
2021/06/21 00:43:12;;;;;;;32.65;22.65;;;20.50;99.90;;;;;;5031144;28;20210;-81
2021/06/21 00:45:37;;;;;;;34.25;22.40;;;20.50;99.90;;;;;;5014651;28;20625;-80
2021/06/21 00:48:04;;;;;;;26.75;20.63;;;20.50;99.90;;;;;;5014707;28;20200;-81
2021/06/21 00:50:30;;;;;;;32.75;21.00;;;20.40;99.90;;;;;;5013891;28;20173;-82
2021/06/21 00:52:58;;;;;;;33.08;20.88;;;20.30;99.90;;;;;;5014351;28;20573;-81
2021/06/21 00:55:25;;;;;;;28.10;20.75;;;20.30;99.90;;;;;;5015577;28;20165;-82
2021/06/21 00:57:51;;;;;;;27.05;20.85;;;20.20;99.90;;;;;;5015725;28;20177;-81
2021/06/21 01:00:20;;;;;;;30.48;21.63;;;20.20;99.90;;;;;;5015570;28;20157;-82
2021/06/21 01:02:46;;;;;;;33.13;21.65;;;20.30;99.90;;;;;;5015751;28;20212;-81
2021/06/21 01:05:21;;;;;;;28.60;21.10;;;20.30;99.90;;;;;;5014700;28;20602;-81
2021/06/21 01:07:47;;;;;;;26.35;20.00;;;20.30;99.90;;;;;;5015316;28;20168;-81
2021/06/21 01:10:15;;;;;;;21.95;19.35;;;20.30;99.90;;;;;;5015191;28;20189;-82
2021/06/21 01:13:03;;;;;;;26.52;20.85;;;20.20;99.90;;;;;;5014015;28;20564;-81
2021/06/21 01:15:32;;;;;;;28.20;19.92;;;20.20;99.90;;;;;;5014203;28;20169;-81
2021/06/21 01:18:04;;;;;;;26.23;19.75;;;20.20;99.90;;;;;;5015251;28;20251;-82
2021/06/21 01:20:58;;;;;;;28.52;19.77;;;20.10;99.90;;;;;;5014922;28;20177;-82
2021/06/21 01:23:51;;;;;;;22.42;18.58;;;20.00;99.90;;;;;;5015301;28;20201;-81
2021/06/21 01:26:43;;;;;;;19.13;17.10;;;19.90;99.90;;;;;;5015158;28;20222;-81
2021/06/21 01:29:46;;;;;;;21.85;17.90;;;19.80;99.90;;;;;;5006360;28;20204;-82
2021/06/21 01:32:18;;;;;;;21.75;18.10;;;19.80;99.90;;;;;;5014993;28;20173;-81
2021/06/21 01:34:50;;;;;;;20.55;16.33;;;19.70;99.90;;;;;;5046901;28;20176;-82
2021/06/21 01:37:18;;;;;;;18.27;15.73;;;19.50;99.90;;;;;;5046539;28;20230;-80
2021/06/21 01:39:47;;;;;;;21.98;15.13;;;19.50;99.90;;;;;;5013583;28;20557;-80
2021/06/21 01:42:16;;;;;;;23.27;14.10;;;19.40;99.90;;;;;;5014760;28;20653;-81
2021/06/21 01:44:53;;;;;;;15.32;13.80;;;19.40;99.90;;;;;;5013575;28;20165;-80
2021/06/21 01:47:21;;;;;;;18.35;14.90;;;19.30;99.90;;;;;;5046796;28;20172;-80
2021/06/21 01:49:49;;;;;;;17.00;13.38;;;19.20;99.90;;;;;;5046360;28;20975;-80
2021/06/21 01:52:18;;;;;;;15.00;13.48;;;19.20;99.90;;;;;;5014798;28;20180;-80
2021/06/21 01:54:55;;;;;;;18.63;13.48;;;19.00;99.90;;;;;;5014401;28;20195;-81
2021/06/21 01:57:27;;;;;;;17.77;13.18;;;19.00;99.90;;;;;;5046271;28;20168;-81
2021/06/21 01:59:53;;;;;;;14.75;13.13;;;19.00;99.90;;;;;;5014516;28;20165;-81
2021/06/21 02:02:24;;;;;;;17.45;12.85;;;18.90;99.90;;;;;;5029722;28;20193;-81
2021/06/21 02:04:54;;;;;;;14.38;12.68;;;18.70;99.90;;;;;;5014756;28;20160;-80
2021/06/21 02:07:22;;;;;;;14.07;12.00;;;18.60;99.90;;;;;;5014241;28;20164;-82
2021/06/21 02:09:48;;;;;;;14.23;12.82;;;18.50;99.90;;;;;;5014627;28;20168;-80
2021/06/21 02:12:19;;;;;;;16.20;14.57;;;18.50;99.90;;;;;;5014364;28;20197;-80
2021/06/21 02:14:48;;;;;;;17.15;13.82;;;18.60;99.90;;;;;;5014176;28;20183;-81
2021/06/21 02:17:15;;;;;;;20.98;14.88;;;18.60;99.90;;;;;;5046171;28;20625;-81
2021/06/21 02:19:43;;;;;;;19.20;13.63;;;18.70;99.90;;;;;;5014262;28;20160;-81
2021/06/21 02:22:08;;;;;;;15.68;14.20;;;18.80;99.90;;;;;;5046032;28;20169;-82
2021/06/21 02:24:35;;;;;;;15.20;13.75;;;18.80;99.90;;;;;;5013996;28;20176;-80
2021/06/21 02:27:02;;;;;;;14.35;12.98;;;18.90;99.90;;;;;;4996674;28;20169;-81
2021/06/21 02:29:30;;;;;;;13.73;12.57;;;18.80;99.90;;;;;;5012745;28;20173;-81
2021/06/21 02:31:56;;;;;;;15.48;12.98;;;18.70;99.90;;;;;;5014091;28;20180;-81
2021/06/21 02:34:23;;;;;;;17.35;14.40;;;18.80;99.90;;;;;;5012566;28;20165;-82
2021/06/21 02:36:49;;;;;;;15.32;13.70;;;18.90;99.90;;;;;;5045525;28;20617;-81
2021/06/21 02:39:16;;;;;;;14.52;13.02;;;18.80;99.90;;;;;;5013494;28;20164;-82
2021/06/21 02:41:42;;;;;;;16.45;13.70;;;18.80;99.90;;;;;;5013592;28;20218;-82
2021/06/21 02:44:08;;;;;;;14.73;13.32;;;18.80;99.90;;;;;;5013922;28;20290;-82
2021/06/21 02:46:34;;;;;;;17.98;13.27;;;18.80;99.90;;;;;;5013829;28;20176;-81
2021/06/21 02:49:01;;;;;;;15.05;13.65;;;18.80;99.90;;;;;;5013690;28;20295;-82
2021/06/21 02:51:43;;;;;;;14.73;13.05;;;18.70;99.90;;;;;;5013937;28;20511;-82
2021/06/21 02:54:19;;;;;;;14.82;13.52;;;18.80;99.90;;;;;;5013676;28;20161;-81
2021/06/21 02:57:07;;;;;;;17.48;15.68;;;18.80;99.90;;;;;;5013748;28;20172;-81
2021/06/21 02:59:36;;;;;;;18.55;16.88;;;18.90;99.90;;;;;;5013667;28;20161;-81
2021/06/21 03:02:02;;;;;;;18.02;16.33;;;19.00;99.90;;;;;;5013423;28;20169;-81
2021/06/21 03:04:30;;;;;;;18.63;16.80;;;19.00;99.90;;;;;;5013375;28;20165;-82
2021/06/21 03:06:57;;;;;;;18.17;16.58;;;18.90;99.90;;;;;;5013457;28;20169;-82
2021/06/21 03:09:23;;;;;;;16.75;15.32;;;18.80;99.90;;;;;;5012379;28;20165;-82
2021/06/21 03:11:52;;;;;;;17.02;15.13;;;18.80;99.90;;;;;;4995950;28;20621;-81
2021/06/21 03:14:24;;;;;;;17.70;16.13;;;18.80;99.90;;;;;;5045293;28;20205;-81
2021/06/21 03:16:55;;;;;;;17.85;16.33;;;18.90;99.90;;;;;;5012228;28;20200;-82
2021/06/21 03:19:21;;;;;;;15.95;14.65;;;18.90;99.90;;;;;;5013202;28;20172;-81
2021/06/21 03:21:46;;;;;;;15.45;14.25;;;18.70;99.90;;;;;;5013595;28;20170;-80
2021/06/21 03:24:14;;;;;;;15.40;14.15;;;18.70;99.90;;;;;;5013379;28;20285;-82
2021/06/21 03:26:41;;;;;;;15.82;14.25;;;18.80;99.90;;;;;;4993909;28;20177;-81
2021/06/21 03:29:15;;;;;;;14.23;13.10;;;18.80;99.90;;;;;;4993684;28;20365;-82
2021/06/21 03:31:45;;;;;;;11.82;10.90;;;18.80;99.90;;;;;;4993463;28;20260;-81
2021/06/21 03:34:12;;;;;;;11.73;10.75;;;18.70;99.90;;;;;;4993815;28;20161;-81
2021/06/21 03:36:38;;;;;;;9.43;8.73;;;18.60;99.90;;;;;;5003104;28;20187;-82
2021/06/21 03:39:05;;;;;;;8.93;8.32;;;18.60;99.90;;;;;;5012046;28;20243;-82
2021/06/21 03:41:31;;;;;;;9.52;8.40;;;18.50;99.90;;;;;;5013196;28;20199;-81
2021/06/21 03:43:57;;;;;;;9.02;8.40;;;18.40;99.90;;;;;;5011847;28;20657;-82
2021/06/21 03:46:22;;;;;;;9.70;8.82;;;18.40;99.90;;;;;;5011639;28;20160;-81
2021/06/21 03:48:48;;;;;;;8.95;8.25;;;18.40;99.90;;;;;;5012150;28;20173;-82
2021/06/21 03:51:14;;;;;;;7.53;6.93;;;18.40;99.90;;;;;;5015775;28;20197;-81
2021/06/21 03:53:40;;;;;;;8.95;6.93;;;18.30;99.90;;;;;;5016916;28;20508;-81
2021/06/21 03:56:05;;;;;;;6.97;6.47;;;18.10;99.90;;;;;;5016910;28;20495;-82
2021/06/21 03:58:31;;;;;;;6.50;6.00;;;18.10;99.90;;;;;;5016928;28;20198;-82
2021/06/21 04:00:57;;;;;;;6.70;6.20;;;18.00;99.90;;;;;;5016905;28;20625;-82
2021/06/21 04:03:25;;;;;;;6.93;6.43;;;18.00;99.90;;;;;;5016803;28;20253;-82
2021/06/21 04:05:51;;;;;;;8.07;7.57;;;17.90;99.90;;;;;;5016790;28;20165;-82
2021/06/21 04:08:17;;;;;;;8.90;8.20;;;17.90;99.90;;;;;;5015502;28;20195;-82
2021/06/21 04:10:47;;;;;;;8.18;7.68;;;17.90;99.90;;;;;;5031673;28;20185;-82
2021/06/21 04:13:15;;;;;;;8.70;8.00;;;17.80;99.90;;;;;;5015062;28;20196;-83
2021/06/21 04:15:41;;;;;;;13.95;7.07;;;17.90;99.90;;;;;;5014955;28;20173;-81
2021/06/21 04:18:10;;;;;;;5.70;5.40;;;18.00;99.90;;;;;;5016561;28;20165;-82
2021/06/21 04:20:37;;;;;;;14.82;5.07;;;18.00;99.90;;;;;;5016312;28;20203;-82
2021/06/21 04:23:04;;;;;;;5.22;4.93;;;17.80;99.90;;;;;;5016338;28;20671;-82
2021/06/21 04:25:30;;;;;;;5.22;4.93;;;17.80;99.90;;;;;;5016371;28;20187;-82
2021/06/21 04:27:55;;;;;;;6.30;5.05;;;17.70;99.90;;;;;;5015905;28;20172;-82
2021/06/21 04:30:23;;;;;;;5.43;5.05;;;17.50;99.90;;;;;;5014853;28;20239;-82
2021/06/21 04:32:50;;;;;;;5.72;5.32;;;17.40;99.90;;;;;;5015032;28;20184;-82
2021/06/21 04:35:19;;;;;;;6.32;5.93;;;17.60;99.90;;;;;;5014903;28;20175;-82
2021/06/21 04:37:45;;;;;;;7.53;6.93;;;17.50;99.90;;;;;;5016031;28;20168;-82
2021/06/21 04:40:14;;;;;;;9.35;7.45;;;17.60;99.90;;;;;;5016113;28;20228;-83
2021/06/21 04:42:40;;;;;;;8.60;6.60;;;17.80;99.90;;;;;;5015947;28;20231;-82
2021/06/21 04:45:07;;;;;;;7.03;6.50;;;17.80;99.90;;;;;;5015868;28;20194;-82
2021/06/21 04:47:33;;;;;;;6.43;6.00;;;17.80;99.90;;;;;;5014823;28;20564;-82
2021/06/21 04:50:03;;;;;;;5.45;5.15;;;17.70;99.90;;;;;;5014798;28;20263;-82
2021/06/21 04:52:32;;;;;;;6.00;5.60;;;17.70;99.90;;;;;;5014662;28;20188;-82
2021/06/21 04:55:02;;;;;;;4.85;4.55;;;17.60;99.90;;;;;;5014165;28;20533;-82
2021/06/21 04:57:29;;;;;;;5.40;5.00;;;17.30;99.90;;;;;;5015883;28;20214;-82
2021/06/21 04:59:55;;;;;;;5.30;4.90;;;17.20;99.90;;;;;;5014498;28;20161;-82
2021/06/21 05:02:21;;;;;;;6.20;5.68;;;17.40;99.90;;;;;;5015028;28;20230;-82
2021/06/21 05:04:47;;;;;;;5.68;5.18;;;17.50;99.90;;;;;;5015654;28;20214;-82
2021/06/21 05:07:13;;;;;;;6.30;5.65;;;17.50;99.90;;;;;;5015588;28;20576;-81
2021/06/21 05:09:38;;;;;;;6.13;5.72;;;17.40;99.90;;;;;;5013926;28;20168;-82
2021/06/21 05:12:04;;;;;;;6.38;5.93;;;17.50;99.90;;;;;;5014133;28;20275;-82
2021/06/21 05:14:30;;;;;;;6.53;5.97;;;17.40;99.90;;;;;;4997908;28;20172;-82
2021/06/21 05:16:56;;;;;;;7.38;5.80;;;17.40;99.90;;;;;;5015478;28;20334;-82
2021/06/21 05:19:21;;;;;;;7.20;5.80;;;17.50;99.90;;;;;;4997602;28;20188;-82
2021/06/21 05:21:47;;;;;;;5.85;5.43;;;17.40;99.90;;;;;;5015175;28;20172;-82
2021/06/21 05:24:13;;;;;;;6.18;5.68;;;17.40;99.90;;;;;;5014842;28;20204;-82
2021/06/21 05:26:38;;;;;;;6.10;5.70;;;17.40;99.90;;;;;;5015629;28;20212;-81
2021/06/21 05:29:04;;;;;;;5.68;5.28;;;17.40;99.90;;;;;;5015211;28;20632;-82
2021/06/21 05:31:30;;;;;;;5.93;5.40;;;17.50;99.90;;;;;;5015002;28;20165;-80
2021/06/21 05:33:55;;;;;;;5.32;4.93;;;17.50;99.90;;;;;;5015510;28;20255;-82
2021/06/21 05:36:21;;;;;;;5.03;4.63;;;17.50;99.90;;;;;;5014769;28;20226;-81
2021/06/21 05:38:47;;;;;;;6.30;5.78;;;17.60;99.90;;;;;;4996969;28;20176;-81
2021/06/21 05:41:12;;;;;;;4.78;4.43;;;17.70;99.90;;;;;;5030194;28;20176;-81
2021/06/21 05:43:38;;;;;;;5.13;4.72;;;17.60;99.90;;;;;;5013483;28;20204;-81
2021/06/21 05:46:03;;;;;;;4.65;4.35;;;17.50;99.90;;;;;;5013773;28;20169;-82
2021/06/21 05:48:30;;;;;;;5.55;5.00;;;17.50;99.90;;;;;;5014853;28;20525;-81
2021/06/21 05:51:00;;;;;;;8.80;4.97;;;17.60;99.90;;;;;;5014566;28;20171;-81
2021/06/21 05:53:28;;;;;;;4.88;4.50;;;17.70;99.90;;;;;;5014412;28;20215;-81
2021/06/21 05:55:54;;;;;;;5.07;4.78;;;17.70;99.90;;;;;;5013381;28;20165;-81
2021/06/21 05:58:19;;;;;;;5.07;4.70;;;17.60;99.90;;;;;;5013523;28;20161;-82
2021/06/21 06:00:45;;;;;;;4.95;4.38;;;17.60;99.90;;;;;;5029832;28;20161;-82
2021/06/21 06:03:10;;;;;;;5.85;4.88;;;17.70;99.90;;;;;;5014426;28;20283;-81
2021/06/21 06:05:36;;;;;;;6.07;4.72;;;17.80;99.90;;;;;;5013092;28;20168;-81
2021/06/21 06:08:02;;;;;;;4.43;4.13;;;17.90;99.90;;;;;;5014589;28;20198;-81
2021/06/21 06:10:28;;;;;;;4.70;4.13;;;17.90;99.90;;;;;;5029514;28;20561;-81
2021/06/21 06:12:53;;;;;;;6.35;4.35;;;17.70;99.90;;;;;;5013797;28;20192;-81
2021/06/21 06:15:19;;;;;;;6.13;4.00;;;17.80;99.90;;;;;;5014324;28;20187;-81
2021/06/21 06:17:45;;;;;;;3.55;3.25;;;17.80;99.90;;;;;;5014345;28;20169;-81
2021/06/21 06:20:11;;;;;;;3.80;3.53;;;17.40;99.90;;;;;;5014036;28;20498;-80
2021/06/21 06:22:37;;;;;;;6.25;4.00;;;17.40;99.90;;;;;;5013757;28;20291;-80
2021/06/21 06:25:05;;;;;;;4.60;4.20;;;17.40;99.90;;;;;;5014176;28;20176;-82
2021/06/21 06:27:30;;;;;;;7.95;4.95;;;17.40;99.90;;;;;;5013952;28;20632;-82
2021/06/21 06:29:56;;;;;;;5.20;4.68;;;17.40;99.90;;;;;;5013945;28;20248;-81
2021/06/21 06:32:22;;;;;;;5.05;4.65;;;17.40;99.90;;;;;;5013924;28;20168;-81
2021/06/21 06:34:47;;;;;;;4.85;4.45;;;17.40;99.90;;;;;;5013816;28;20411;-80
2021/06/21 06:37:13;;;;;;;5.15;4.68;;;17.50;99.90;;;;;;5013837;28;20252;-81
2021/06/21 06:39:39;;;;;;;7.38;3.97;;;17.60;99.90;;;;;;5045488;28;20199;-81
2021/06/21 06:42:05;;;;;;;4.32;4.03;;;17.50;99.90;;;;;;5013774;28;20176;-81
2021/06/21 06:44:31;;;;;;;5.25;4.95;;;17.30;99.90;;;;;;5013814;28;20169;-81
2021/06/21 06:46:57;;;;;;;7.45;5.10;;;17.30;99.90;;;;;;5013963;28;20168;-82
2021/06/21 06:49:23;;;;;;;7.25;6.75;;;17.30;99.90;;;;;;5028768;28;20173;-81
2021/06/21 06:51:52;;;;;;;7.50;6.75;;;17.30;99.90;;;;;;5013691;28;20164;-83
2021/06/21 06:57:04;;;;;;;8.52;7.63;;;17.30;99.90;;;;;;5012662;28;20224;-81
2021/06/21 06:59:38;;;;;;;9.75;8.85;;;17.30;99.90;;;;;;5012312;28;20275;-82
2021/06/21 07:02:09;;;;;;;8.82;8.23;;;17.20;99.90;;;;;;5012529;28;20211;-82
2021/06/21 07:04:36;;;;;;;8.52;7.93;;;17.00;99.90;;;;;;5013740;28;20306;-81
2021/06/21 07:07:03;;;;;;;6.70;6.13;;;16.90;99.90;;;;;;5012863;28;20227;-81
2021/06/21 07:09:30;;;;;;;13.30;5.70;;;17.00;99.90;;;;;;5013688;28;20164;-80
2021/06/21 07:11:56;;;;;;;6.50;6.00;;;17.00;99.90;;;;;;5013788;28;20226;-80
2021/06/21 07:14:22;;;;;;;6.10;5.70;;;17.10;99.90;;;;;;5012034;28;20268;-81
2021/06/21 07:16:49;;;;;;;7.75;7.07;;;17.10;99.90;;;;;;5013470;28;20200;-78
2021/06/21 07:19:15;;;;;;;7.32;6.72;;;17.20;99.90;;;;;;5013738;28;20598;-78
2021/06/21 07:21:41;;;;;;;7.10;5.72;;;17.40;99.90;;;;;;5013432;28;20165;-78
2021/06/21 07:24:08;;;;;;;4.93;4.53;;;17.50;99.90;;;;;;5008216;28;21636;-80
2021/06/21 07:26:34;;;;;;;5.13;4.72;;;17.30;99.90;;;;;;5025343;28;20168;-77
2021/06/21 07:29:00;;;;;;;4.70;4.30;;;17.20;99.90;;;;;;5017183;28;20236;-78
2021/06/21 07:31:29;;;;;;;4.18;3.13;;;17.30;99.90;;;;;;5018224;28;20676;-78
2021/06/21 07:33:55;;;;;;;3.40;3.03;;;17.20;99.90;;;;;;5018414;28;20649;-80
2021/06/21 07:36:21;;;;;;;2.72;2.53;;;16.70;99.90;;;;;;5017398;28;20164;-79
2021/06/21 07:38:47;;;;;;;9.07;4.75;;;16.60;99.90;;;;;;5017259;28;20609;-80
2021/06/21 07:41:13;;;;;;;3.72;3.47;;;16.80;99.90;;;;;;5019856;28;20518;-78
2021/06/21 07:43:39;;;;;;;3.78;3.53;;;17.10;99.90;;;;;;5023928;28;20228;-88
2021/06/21 07:46:05;;;;;;;5.85;4.95;;;17.40;99.90;;;;;;5012027;28;20215;-88
2021/06/21 07:48:31;;;;;;;5.28;4.93;;;17.30;99.90;;;;;;5015835;28;20168;-81
2021/06/21 07:50:57;;;;;;;4.63;4.22;;;17.40;99.90;;;;;;5015749;28;20181;-81
2021/06/21 07:53:23;;;;;;;3.75;3.55;;;17.50;99.90;;;;;;5031952;28;20187;-81
2021/06/21 07:55:48;;;;;;;3.25;3.05;;;17.70;99.90;;;;;;5032721;28;20183;-83
2021/06/21 07:58:14;;;;;;;2.00;1.90;;;18.00;99.90;;;;;;5052055;28;20168;-83
2021/06/21 08:00:40;;;;;;;2.00;1.90;;;18.40;99.90;;;;;;5036072;28;20176;-82
2021/06/21 08:03:10;;;;;;;1.85;1.75;;;18.40;99.90;;;;;;5036274;28;20529;-81
2021/06/21 08:05:37;;;;;;;1.60;1.50;;;18.10;99.90;;;;;;5036395;28;20160;-82
2021/06/21 08:08:04;;;;;;;2.72;1.38;;;17.90;99.90;;;;;;5036193;28;20163;-81
2021/06/21 08:10:30;;;;;;;1.70;1.60;;;17.80;99.90;;;;;;5036566;28;20175;-82
2021/06/21 08:12:55;;;;;;;1.83;1.73;;;18.10;99.90;;;;;;5050957;28;20640;-81
2021/06/21 08:15:21;;;;;;;1.80;1.70;;;18.40;99.90;;;;;;5034744;28;20617;-82
2021/06/21 08:17:46;;;;;;;1.30;1.30;;;18.90;99.90;;;;;;5034983;28;20175;-82
2021/06/21 08:20:13;;;;;;;1.80;1.70;;;19.00;99.90;;;;;;5036328;28;20617;-82
2021/06/21 08:22:39;;;;;;;2.60;2.50;;;19.30;99.90;;;;;;5035720;28;20660;-81
2021/06/21 08:25:06;;;;;;;3.08;2.33;;;19.50;99.90;;;;;;5041627;28;20223;-81
2021/06/21 08:27:32;;;;;;;2.10;2.00;;;19.70;99.90;;;;;;5014980;28;20164;-82
2021/06/21 08:29:59;;;;;;;2.22;2.13;;;19.90;99.90;;;;;;5016723;28;20238;-80
2021/06/21 08:32:25;;;;;;;2.83;2.70;;;20.00;99.90;;;;;;5016246;28;20157;-81
2021/06/21 08:34:51;;;;;;;3.05;2.85;;;20.40;99.90;;;;;;5015066;28;20180;-81
2021/06/21 08:37:18;;;;;;;4.65;4.35;;;20.60;99.90;;;;;;5015324;28;20165;-80
2021/06/21 08:39:44;;;;;;;5.28;3.90;;;20.50;99.90;;;;;;5016052;28;20164;-82
2021/06/21 08:42:10;;;;;;;3.70;3.50;;;19.70;99.90;;;;;;5016295;28;20243;-78
2021/06/21 08:44:36;;;;;;;3.38;3.17;;;19.40;99.90;;;;;;5010778;28;20451;-81
2021/06/21 08:47:04;;;;;;;2.60;2.50;;;19.50;99.90;;;;;;5015194;28;20557;-83
2021/06/21 08:49:38;;;;;;;3.97;1.90;;;19.60;99.90;;;;;;5014632;28;20168;-82
2021/06/21 08:52:05;;;;;;;2.30;2.10;;;19.70;99.90;;;;;;5015583;28;20416;-83
2021/06/21 08:54:31;;;;;;;2.13;2.03;;;19.80;99.90;;;;;;5015897;28;20173;-82
2021/06/21 08:56:59;;;;;;;1.77;1.67;;;19.80;99.90;;;;;;4998338;28;20165;-82
2021/06/21 08:59:25;;;;;;;4.35;1.80;;;19.50;99.90;;;;;;5031294;28;20173;-82
2021/06/21 09:01:52;;;;;;;6.95;1.88;;;19.50;99.90;;;;;;5014060;28;20171;-82
2021/06/21 09:04:18;;;;;;;3.83;2.00;;;19.70;99.90;;;;;;5015169;28;20550;-83
2021/06/21 09:06:43;;;;;;;2.70;1.58;;;19.70;99.90;;;;;;5013845;28;20606;-83
2021/06/21 09:09:09;;;;;;;2.08;1.98;;;19.80;99.90;;;;;;5013798;28;20172;-81
2021/06/21 09:11:49;;;;;;;2.00;1.80;;;19.90;99.90;;;;;;5014522;28;20193;-76
2021/06/21 09:14:29;;;;;;;2.03;1.92;;;19.70;99.90;;;;;;5040749;28;20558;-81
2021/06/21 09:17:01;;;;;;;1.85;1.60;;;19.80;99.90;;;;;;5035090;28;20170;-76
2021/06/21 09:19:28;;;;;;;2.00;1.90;;;19.70;99.90;;;;;;5031615;28;20171;-77
2021/06/21 09:21:54;;;;;;;2.10;1.90;;;20.10;99.90;;;;;;5049859;28;20263;-77
2021/06/21 09:24:24;;;;;;;1.63;1.52;;;20.00;99.90;;;;;;5034809;28;20228;-77
2021/06/21 09:26:58;;;;;;;2.08;1.98;;;20.20;99.90;;;;;;5034623;28;20627;-76
2021/06/21 09:29:41;;;;;;;2.40;2.20;;;20.30;99.90;;;;;;5024084;28;20264;-76
2021/06/21 09:32:07;;;;;;;1.80;1.70;;;20.30;99.90;;;;;;5018392;28;20218;-76
2021/06/21 09:34:33;;;;;;;1.70;1.60;;;20.60;99.90;;;;;;5027627;28;20565;-78
2021/06/21 09:37:11;;;;;;;2.75;1.58;;;20.80;99.90;;;;;;5014857;28;20175;-77
2021/06/21 09:39:47;;;;;;;1.88;1.77;;;21.10;99.90;;;;;;5014890;28;20573;-76
2021/06/21 09:42:24;;;;;;;2.13;2.03;;;21.30;99.90;;;;;;5041888;28;20250;-78
2021/06/21 09:44:54;;;;;;;2.75;2.00;;;21.10;99.90;;;;;;5026341;28;20178;-78
2021/06/21 09:47:35;;;;;;;2.67;2.47;;;21.20;99.90;;;;;;5031192;28;20183;-78
2021/06/21 09:50:03;;;;;;;2.10;1.90;;;21.30;99.90;;;;;;5027569;28;20190;-78
2021/06/21 09:52:46;;;;;;;2.90;2.80;;;21.50;99.90;;;;;;5049012;28;20205;-78
2021/06/21 09:55:21;;;;;;;3.25;3.05;;;21.80;99.90;;;;;;5049043;28;20164;-81
2021/06/21 09:57:59;;;;;;;4.78;3.03;;;22.20;99.90;;;;;;5033258;28;20175;-81
2021/06/21 10:00:25;;;;;;;3.95;3.75;;;21.90;99.90;;;;;;5016049;28;20617;-79
2021/06/21 10:03:14;;;;;;;4.07;3.88;;;22.10;99.90;;;;;;5029067;28;20193;-77
2021/06/21 10:06:07;;;;;;;4.68;4.38;;;21.80;99.90;;;;;;5014125;28;20168;-78
2021/06/21 10:08:53;;;;;;;4.65;4.40;;;21.70;99.90;;;;;;5016560;28;20263;-78
2021/06/21 10:11:37;;;;;;;5.18;4.88;;;21.50;99.90;;;;;;5031847;28;20631;-78
2021/06/21 10:14:09;;;;;;;5.43;5.05;;;21.50;99.90;;;;;;5029783;28;20177;-79
2021/06/21 10:16:36;;;;;;;5.43;5.03;;;21.60;99.90;;;;;;5014085;28;20219;-79
2021/06/21 10:19:03;;;;;;;4.65;4.35;;;21.60;99.90;;;;;;5012268;28;20256;-82
2021/06/21 10:21:30;;;;;;;3.75;3.45;;;21.60;99.90;;;;;;4996695;28;20207;-79
2021/06/21 10:23:57;;;;;;;3.90;3.60;;;21.50;99.90;;;;;;5013891;28;20250;-79
2021/06/21 10:26:23;;;;;;;3.95;3.75;;;21.30;99.90;;;;;;5013989;28;20637;-78
2021/06/21 10:28:50;;;;;;;4.00;3.70;;;21.20;99.90;;;;;;5018160;28;20196;-78
2021/06/21 10:31:22;;;;;;;3.50;3.22;;;21.20;99.90;;;;;;5033917;28;20218;-78
2021/06/21 10:33:49;;;;;;;3.53;3.30;;;21.10;99.90;;;;;;5033746;28;20190;-78
2021/06/21 10:36:15;;;;;;;2.90;2.75;;;21.10;99.90;;;;;;5049040;28;20163;-79
2021/06/21 10:38:40;;;;;;;4.00;3.70;;;21.10;99.90;;;;;;5031208;28;20160;-78
2021/06/21 10:41:12;;;;;;;3.67;3.40;;;21.00;99.90;;;;;;5029208;28;20267;-78
2021/06/21 10:43:44;;;;;;;4.15;3.80;;;20.90;99.90;;;;;;5017276;28;20195;-84
2021/06/21 10:46:29;;;;;;;3.97;3.67;;;20.90;99.90;;;;;;5019314;28;20191;-78
2021/06/21 10:49:06;;;;;;;4.05;3.17;;;20.90;99.90;;;;;;5028942;28;20168;-78
2021/06/21 10:51:35;;;;;;;3.70;3.50;;;21.00;99.90;;;;;;5014049;28;20167;-79
2021/06/21 10:54:02;;;;;;;4.45;3.55;;;21.10;99.90;;;;;;5013916;28;20164;-79
2021/06/21 10:56:48;;;;;;;4.30;3.90;;;21.30;99.90;;;;;;5012305;28;20608;-79
2021/06/21 10:59:19;;;;;;;3.97;3.60;;;21.60;99.90;;;;;;5019626;28;20254;-78
2021/06/21 11:01:48;;;;;;;5.85;5.35;;;21.90;99.90;;;;;;5032013;28;20178;-79
2021/06/21 11:04:38;;;;;;;3.80;3.60;;;22.20;99.90;;;;;;5033285;28;20218;-78
2021/06/21 11:07:15;;;;;;;53.25;9.02;;;22.40;99.90;;;;;;5035203;28;20205;-80
2021/06/21 11:09:47;;;;;;;14.88;5.45;;;22.20;99.90;;;;;;5023274;28;20173;-79
2021/06/21 11:12:22;;;;;;;16.92;6.18;;;22.10;99.90;;;;;;5012046;28;20195;-79
2021/06/21 11:15:15;;;;;;;5.40;4.40;;;21.40;99.90;;;;;;5041377;28;20175;-78
2021/06/21 11:17:43;;;;;;;5.65;5.15;;;20.50;99.90;;;;;;5033899;28;20210;-79
2021/06/21 11:20:28;;;;;;;5.32;4.90;;;20.20;99.90;;;;;;5016089;28;20219;-78
2021/06/21 11:22:59;;;;;;;8.27;4.70;;;20.30;99.90;;;;;;5039269;28;20192;-78
2021/06/21 11:25:30;;;;;;;5.25;4.95;;;20.40;99.90;;;;;;5033333;28;20555;-78
2021/06/21 11:27:56;;;;;;;7.35;5.05;;;20.50;99.90;;;;;;5032969;28;20164;-79
2021/06/21 11:30:23;;;;;;;5.30;5.00;;;20.60;99.90;;;;;;5032325;28;20183;-78
2021/06/21 11:33:12;;;;;;;7.50;5.78;;;20.50;99.90;;;;;;5033018;28;20160;-78
2021/06/21 11:35:48;;;;;;;5.65;5.18;;;20.70;99.90;;;;;;5033290;28;20192;-78
2021/06/21 11:38:22;;;;;;;5.60;5.20;;;20.50;99.90;;;;;;5030609;28;20189;-78
2021/06/21 11:40:48;;;;;;;5.68;5.28;;;20.60;99.90;;;;;;5013051;28;20165;-78
2021/06/21 11:43:16;;;;;;;5.18;4.82;;;20.30;99.90;;;;;;5013062;28;20204;-81
2021/06/21 11:45:57;;;;;;;5.35;4.85;;;20.40;99.90;;;;;;5032313;28;20170;-77
2021/06/21 11:48:42;;;;;;;5.53;5.22;;;20.40;99.90;;;;;;5032360;28;20156;-77
2021/06/21 11:51:17;;;;;;;7.20;6.60;;;20.40;99.90;;;;;;5031425;28;20688;-76
2021/06/21 11:53:46;;;;;;;7.15;6.75;;;20.40;99.90;;;;;;5032818;28;20251;-76
2021/06/21 11:56:22;;;;;;;9.02;8.40;;;20.20;99.90;;;;;;5032930;28;20644;-76
2021/06/21 11:58:52;;;;;;;8.75;8.25;;;20.30;99.90;;;;;;5028800;28;20176;-76
2021/06/21 12:01:24;;;;;;;9.23;8.52;;;20.30;99.90;;;;;;5013018;28;20223;-77
2021/06/21 12:03:59;;;;;;;9.20;8.60;;;20.20;99.90;;;;;;5011745;28;20669;-75
2021/06/21 12:06:26;;;;;;;9.27;8.65;;;20.00;99.90;;;;;;5013087;28;20230;-76
2021/06/21 12:08:52;;;;;;;9.82;8.80;;;20.10;99.90;;;;;;5017364;28;20160;-76
2021/06/21 12:11:29;;;;;;;7.97;7.53;;;20.30;99.90;;;;;;5032147;28;20233;-76
2021/06/21 12:13:55;;;;;;;7.82;7.40;;;20.30;99.90;;;;;;5043829;28;20203;-76
2021/06/21 12:16:20;;;;;;;7.30;6.90;;;19.90;99.90;;;;;;5016535;28;20200;-76
2021/06/21 12:18:54;;;;;;;8.10;7.60;;;19.60;99.90;;;;;;5019656;28;20179;-79
2021/06/21 12:21:32;;;;;;;8.30;7.80;;;19.60;99.90;;;;;;5035221;28;20182;-77
2021/06/21 12:24:31;;;;;;;9.43;8.18;;;19.50;99.90;;;;;;5036087;28;20648;-78
2021/06/21 12:27:08;;;;;;;8.80;8.20;;;19.30;99.90;;;;;;5034871;28;20191;-78
2021/06/21 12:29:36;;;;;;;9.18;8.30;;;19.40;99.90;;;;;;5048661;28;20172;-77
2021/06/21 12:32:08;;;;;;;8.60;7.85;;;19.60;99.90;;;;;;5035928;28;20168;-78
2021/06/21 12:34:51;;;;;;;8.90;8.30;;;19.40;99.90;;;;;;5051511;28;20558;-77
2021/06/21 12:37:36;;;;;;;7.15;6.65;;;19.60;99.90;;;;;;5034692;28;20609;-78
2021/06/21 12:40:16;;;;;;;7.75;7.25;;;19.70;99.90;;;;;;5022544;28;20172;-78
2021/06/21 12:42:43;;;;;;;8.32;7.72;;;19.60;99.90;;;;;;5016137;28;20294;-79
2021/06/21 12:45:17;;;;;;;7.43;6.85;;;19.50;99.90;;;;;;5031626;28;20593;-78
2021/06/21 12:47:55;;;;;;;6.82;6.32;;;19.20;99.90;;;;;;5015958;28;20169;-78
2021/06/21 12:50:23;;;;;;;7.28;6.78;;;19.00;99.90;;;;;;5031210;28;20631;-78
2021/06/21 12:52:51;;;;;;;6.05;5.68;;;19.10;99.90;;;;;;5024805;28;20215;-78
2021/06/21 12:55:27;;;;;;;7.47;6.93;;;19.10;99.90;;;;;;5014220;28;20173;-77